Time;durP1;ratioP1;P1;durP2;ratioP2;P2;SDS_P1;SDS_P2;PMS_P1;PMS_P2;Temp;Humidity;BMP_temperature;BMP_pressure;BME280_temperature;BME280_humidity;BME280_pressure;Samples;Min_cycle;Max_cycle;Signal;HPM_P1;HPM_P2
2021/06/30 00:01:53;;;;;;;;;;;;;;;11.70;100.00;99831.94;5070621;28;19955;-77
2021/06/30 00:04:36;;;;;;;;;;;;;;;11.75;100.00;99839.91;5090943;28;19938;-78
2021/06/30 00:07:19;;;;;;;;;;;;;;;11.72;100.00;99839.91;5090784;28;19938;-78
2021/06/30 00:10:05;;;;;;;;;;;;;;;11.63;100.00;99848.78;5090496;28;19913;-78
2021/06/30 00:12:50;;;;;;;;;;;;;;;11.63;100.00;99845.19;5090905;28;19920;-78
2021/06/30 00:15:58;;;;;;;;;;;;;;;11.62;100.00;99851.94;5111204;27;19912;-78
2021/06/30 00:18:41;;;;;;;;;;;;;;;11.54;100.00;99858.81;5090631;28;19942;-80
2021/06/30 00:21:26;;;;;;;;;;;;;;;11.59;100.00;99861.97;5090628;28;20459;-78
2021/06/30 00:24:22;;;;;;;;;;;;;;;11.50;100.00;99872.03;5131507;27;19941;-80
2021/06/30 00:27:05;;;;;;;;;;;;;;;11.45;100.00;99881.66;5111109;27;19916;-77
2021/06/30 00:29:50;;;;;;;;;;;;;;;11.50;100.00;99888.81;5090753;28;19943;-80
2021/06/30 00:32:34;;;;;;;;;;;;;;;11.49;100.00;99893.66;5110982;27;19965;-78
2021/06/30 00:35:18;;;;;;;;;;;;;;;11.58;100.00;99912.78;5111060;27;19912;-78
2021/06/30 00:38:02;;;;;;;;;;;;;;;11.45;100.00;99914.47;5090667;28;19913;-80
2021/06/30 00:40:47;;;;;;;;;;;;;;;11.28;100.00;99913.38;5138314;27;19916;-77
2021/06/30 00:43:57;;;;;;;;;;;;;;;11.20;100.00;99931.38;5111232;27;19916;-80
2021/06/30 00:46:38;;;;;;;;;;;;;;;11.14;100.00;99937.78;5059710;27;2004799;-80
2021/06/30 00:49:22;;;;;;;;;;;;;;;11.17;100.00;99948.97;5090603;28;19966;-78
2021/06/30 00:52:06;;;;;;;;;;;;;;;11.14;100.00;99949.78;5111246;27;19912;-78
2021/06/30 00:54:51;;;;;;;;;;;;;;;11.10;100.00;99960.22;5090532;28;19916;-78
2021/06/30 00:57:36;;;;;;;;;;;;;;;11.17;100.00;99954.56;5090908;28;19942;-78
2021/06/30 01:00:18;;;;;;;;;;;;;;;11.10;100.00;99949.03;5040586;27;2032331;-78
2021/06/30 01:03:02;;;;;;;;;;;;;;;11.04;100.00;99958.22;5090586;28;19920;-80
2021/06/30 01:05:44;;;;;;;;;;;;;;;11.13;100.00;99958.59;5041385;27;2007925;-77
2021/06/30 01:08:28;;;;;;;;;;;;;;;11.10;100.00;99965.81;5090578;28;19959;-78
2021/06/30 01:11:13;;;;;;;;;;;;;;;11.04;100.00;99956.22;5111180;27;19912;-78
2021/06/30 01:13:55;;;;;;;;;;;;;;;11.08;100.00;99962.59;5075546;27;2009959;-77
2021/06/30 01:16:38;;;;;;;;;;;;;;;11.05;100.00;99959.81;5111182;27;19916;-77
2021/06/30 01:19:23;;;;;;;;;;;;;;;11.09;100.00;99953.00;5111057;27;19912;-80
2021/06/30 01:22:06;;;;;;;;;;;;;;;11.15;100.00;99954.16;5086352;27;1988748;-77
2021/06/30 01:24:48;;;;;;;;;;;;;;;11.15;100.00;99962.56;5070493;27;2000195;-80
2021/06/30 01:27:33;;;;;;;;;;;;;;;11.19;100.00;99957.78;5088648;28;19966;-80
2021/06/30 01:30:17;;;;;;;;;;;;;;;11.16;100.00;99969.78;5088238;28;20351;-80
2021/06/30 01:33:01;;;;;;;;;;;;;;;11.13;100.00;99970.59;5097359;27;19961;-78
2021/06/30 01:35:44;;;;;;;;;;;;;;;10.91;100.00;100009.00;5120795;27;19916;-80
2021/06/30 01:38:28;;;;;;;;;;;;;;;11.02;100.00;100008.16;5078868;28;20338;-80
2021/06/30 01:41:13;;;;;;;;;;;;;;;10.93;100.00;100008.59;5074555;27;2012181;-80
2021/06/30 01:44:12;;;;;;;;;;;;;;;10.69;100.00;100001.06;5064965;28;19916;-80
2021/06/30 01:46:56;;;;;;;;;;;;;;;10.64;100.00;100009.84;5087584;28;19913;-80
2021/06/30 01:49:41;;;;;;;;;;;;;;;10.54;100.00;100005.06;5090642;27;19997;-80
2021/06/30 01:52:20;;;;;;;;;;;;;;;10.55;100.00;100001.88;5134585;27;19912;-77
2021/06/30 01:55:04;;;;;;;;;;;;;;;10.56;100.00;100014.66;5111208;27;19942;-80
2021/06/30 01:57:48;;;;;;;;;;;;;;;10.49;100.00;100017.44;5070384;27;2010753;-78
2021/06/30 02:00:26;;;;;;;;;;;;;;;10.53;100.00;100015.44;5108105;27;19977;-80
2021/06/30 02:03:07;;;;;;;;;;;;;;;10.52;100.00;100010.25;5028748;27;1999736;-80
2021/06/30 02:05:51;;;;;;;;;;;;;;;10.42;100.00;100011.06;5142138;27;19919;-80
2021/06/30 02:08:35;;;;;;;;;;;;;;;10.59;100.00;100013.03;5108091;27;19916;-78
2021/06/30 02:11:18;;;;;;;;;;;;;;;10.61;100.00;100017.03;5106331;27;19942;-80
2021/06/30 02:14:01;;;;;;;;;;;;;;;10.34;100.00;100009.47;5108169;27;19916;-80
2021/06/30 02:16:44;;;;;;;;;;;;;;;10.43;100.00;100010.66;5104713;27;19958;-80
2021/06/30 02:19:39;;;;;;;;;;;;;;;10.52;100.00;100010.25;5108060;27;19924;-80
2021/06/30 02:22:33;;;;;;;;;;;;;;;10.55;100.00;99999.09;5094239;27;19917;-80
2021/06/30 02:25:19;;;;;;;;;;;;;;;10.58;100.00;100006.66;5079251;28;19944;-80
2021/06/30 02:28:03;;;;;;;;;;;;;;;10.69;100.00;100001.06;5082681;28;19913;-80
2021/06/30 02:30:43;;;;;;;;;;;;;;;10.68;100.00;100003.03;5086424;28;19912;-80
2021/06/30 02:33:27;;;;;;;;;;;;;;;10.73;100.00;99993.44;5111206;27;20432;-77
2021/06/30 02:36:10;;;;;;;;;;;;;;;10.73;100.00;99997.06;5110984;27;19912;-80
2021/06/30 02:39:06;;;;;;;;;;;;;;;10.70;100.00;99999.84;5090803;28;19943;-80
2021/06/30 02:41:50;;;;;;;;;;;;;;;10.77;100.00;99997.84;5082356;28;20318;-80
2021/06/30 02:44:34;;;;;;;;;;;;;;;10.81;100.00;99997.84;5111062;27;19912;-80
2021/06/30 02:47:17;;;;;;;;;;;;;;;10.94;100.00;99999.00;5110894;27;19916;-78
2021/06/30 02:50:00;;;;;;;;;;;;;;;10.87;100.00;99997.00;5111048;27;19913;-80
2021/06/30 02:52:47;;;;;;;;;;;;;;;10.78;100.00;99993.84;5090800;28;19918;-78
2021/06/30 02:55:31;;;;;;;;;;;;;;;10.76;100.00;99989.84;5111032;27;19938;-78
2021/06/30 02:58:14;;;;;;;;;;;;;;;10.81;100.00;99995.81;5111299;27;19912;-80
2021/06/30 03:00:57;;;;;;;;;;;;;;;10.70;100.00;99980.28;5090894;28;19912;-80
2021/06/30 03:03:40;;;;;;;;;;;;;;;10.65;100.00;99970.31;5111270;27;19966;-80
2021/06/30 03:06:23;;;;;;;;;;;;;;;10.51;100.00;99956.34;5091033;28;19920;-77
2021/06/30 03:09:01;;;;;;;;;;;;;;;10.38;100.00;99966.38;5111165;27;19916;-80
2021/06/30 03:11:45;;;;;;;;;;;;;;;10.41;100.00;99948.00;5089417;28;20360;-80
2021/06/30 03:14:29;;;;;;;;;;;;;;;10.48;100.00;99953.59;5104620;27;19921;-80
2021/06/30 03:17:14;;;;;;;;;;;;;;;10.54;100.00;99961.13;5136655;27;19961;-80
2021/06/30 03:19:52;;;;;;;;;;;;;;;10.43;100.00;99953.97;5090843;28;20414;-80
2021/06/30 03:22:40;;;;;;;;;;;;;;;10.40;100.00;99949.19;5111146;27;19912;-77
2021/06/30 03:25:36;;;;;;;;;;;;;;;10.35;100.00;99955.19;5111325;27;19938;-80
2021/06/30 03:28:19;;;;;;;;;;;;;;;10.49;100.00;99949.59;5091039;28;20322;-80
2021/06/30 03:31:04;;;;;;;;;;;;;;;10.60;100.00;99953.16;5135136;27;19915;-80
2021/06/30 03:33:48;;;;;;;;;;;;;;;10.70;100.00;99955.13;5111190;27;20427;-80
2021/06/30 03:36:31;;;;;;;;;;;;;;;10.83;100.00;99967.47;5111254;27;19938;-80
2021/06/30 03:39:14;;;;;;;;;;;;;;;10.93;100.00;99961.06;5091012;28;19939;-77
2021/06/30 03:41:57;;;;;;;;;;;;;;;11.08;100.00;99962.59;5111447;27;19912;-77
2021/06/30 03:44:40;;;;;;;;;;;;;;;11.12;100.00;99948.63;5090882;28;19965;-80
2021/06/30 03:47:23;;;;;;;;;;;;;;;11.13;100.00;99945.41;5090870;28;19916;-78
2021/06/30 03:50:04;;;;;;;;;;;;;;;11.19;100.00;99957.78;5041013;27;2018683;-78
2021/06/30 03:52:46;;;;;;;;;;;;;;;11.28;100.00;99955.31;5070059;27;1991019;-78
2021/06/30 03:55:31;;;;;;;;;;;;;;;11.46;100.00;99961.63;5091069;28;19982;-80
2021/06/30 03:58:27;;;;;;;;;;;;;;;11.49;100.00;99955.22;5090862;28;19938;-80
2021/06/30 04:01:10;;;;;;;;;;;;;;;11.55;100.00;99959.19;5070899;28;19970;-78
2021/06/30 04:03:55;;;;;;;;;;;;;;;11.55;100.00;99953.56;5090659;27;19920;-80
2021/06/30 04:06:40;;;;;;;;;;;;;;;11.55;100.00;99953.56;5090186;28;19958;-80
2021/06/30 04:09:37;;;;;;;;;;;;;;;11.51;100.00;99952.78;5090263;28;19916;-80
2021/06/30 04:12:22;;;;;;;;;;;;;;;11.58;100.00;99952.75;5090254;28;19939;-78
2021/06/30 04:15:06;;;;;;;;;;;;;;;11.62;100.00;99947.13;5110771;27;19924;-78
2021/06/30 04:17:49;;;;;;;;;;;;;;;11.54;100.00;99951.97;5110409;27;19916;-81
2021/06/30 04:20:32;;;;;;;;;;;;;;;11.55;100.00;99952.78;5110509;27;19985;-78
2021/06/30 04:23:16;;;;;;;;;;;;;;;11.67;100.00;99955.94;5091023;28;19943;-77
2021/06/30 04:26:00;;;;;;;;;;;;;;;11.84;100.00;99955.03;5091010;27;19928;-78
2021/06/30 04:28:45;;;;;;;;;;;;;;;11.85;100.00;99951.00;5090762;28;19913;-78
2021/06/30 04:31:29;;;;;;;;;;;;;;;11.83;100.00;99953.41;5111114;27;19915;-78
2021/06/30 04:34:12;;;;;;;;;;;;;;;11.88;100.00;99955.78;5090862;28;19916;-78
2021/06/30 04:36:55;;;;;;;;;;;;;;;11.92;100.00;99959.34;5111421;27;19957;-78
2021/06/30 04:39:38;;;;;;;;;;;;;;;12.02;100.00;99966.09;5090857;28;20322;-78
2021/06/30 04:42:21;;;;;;;;;;;;;;;12.07;100.00;99962.84;5111115;27;20355;-77
2021/06/30 04:45:04;;;;;;;;;;;;;;;12.11;100.00;99964.44;5111365;27;19912;-78
2021/06/30 04:47:47;;;;;;;;;;;;;;;12.16;100.00;99963.97;5111290;27;19912;-78
2021/06/30 04:50:30;;;;;;;;;;;;;;;12.28;100.00;99963.47;5090863;28;20425;-78
2021/06/30 04:53:13;;;;;;;;;;;;;;;12.23;100.00;99949.91;5111123;27;19912;-77
2021/06/30 04:55:56;;;;;;;;;;;;;;;11.94;100.00;99942.13;5111229;27;19973;-77
2021/06/30 04:58:39;;;;;;;;;;;;;;;11.80;100.00;99942.25;5111127;27;19959;-80
2021/06/30 05:01:22;;;;;;;;;;;;;;;11.76;100.00;99938.66;5111082;27;20355;-80
2021/06/30 05:04:07;;;;;;;;;;;;;;;11.90;100.00;99942.19;5090849;28;19966;-78
2021/06/30 05:06:52;;;;;;;;;;;;;;;11.80;100.00;99940.25;5135334;27;20405;-80
2021/06/30 05:09:36;;;;;;;;;;;;;;;11.91;100.00;99946.56;5111149;27;19961;-78
2021/06/30 05:12:19;;;;;;;;;;;;;;;11.98;100.00;99942.94;5090689;28;19982;-78
2021/06/30 05:15:02;;;;;;;;;;;;;;;12.09;100.00;99955.63;5090815;28;20428;-78
2021/06/30 05:17:45;;;;;;;;;;;;;;;12.29;100.00;99956.66;5111205;27;20358;-79
2021/06/30 05:20:23;;;;;;;;;;;;;;;12.45;100.00;99961.72;5098875;27;20363;-78
2021/06/30 05:23:04;;;;;;;;;;;;;;;12.43;100.00;99952.94;5041723;27;1999158;-78
2021/06/30 05:25:48;;;;;;;;;;;;;;;12.50;100.00;99953.66;5076396;28;19916;-78
2021/06/30 05:28:32;;;;;;;;;;;;;;;12.61;100.00;99953.56;5110979;27;19916;-80
2021/06/30 05:31:16;;;;;;;;;;;;;;;12.74;100.00;99946.19;5073546;28;19912;-78
2021/06/30 05:34:00;;;;;;;;;;;;;;;12.77;100.00;99948.16;5108479;27;19917;-80
2021/06/30 05:36:49;;;;;;;;;;;;;;;12.75;100.00;99942.97;5109955;27;19961;-80
2021/06/30 05:39:33;;;;;;;;;;;;;;;12.88;100.00;99939.63;5073971;27;19938;-78
2021/06/30 05:42:29;;;;;;;;;;;;;;;12.70;100.00;99915.41;5110290;27;19916;-80
2021/06/30 05:45:16;;;;;;;;;;;;;;;12.89;100.00;99924.41;5090239;28;19966;-77
2021/06/30 05:48:00;;;;;;;;;;;;;;;12.89;100.00;99918.81;5080881;28;19982;-77
2021/06/30 05:50:44;;;;;;;;;;;;;;;12.96;100.00;99918.72;5110934;27;19912;-77
2021/06/30 05:53:27;;;;;;;;;;;;;;;13.10;100.00;99921.38;5111085;27;19912;-79
2021/06/30 05:56:10;;;;;;;;;;;;;;;13.22;100.00;99916.00;5108989;27;19916;-77
2021/06/30 05:58:53;;;;;;;;;;;;;;;13.16;100.00;99903.63;5083503;27;19916;-77
2021/06/30 06:01:36;;;;;;;;;;;;;;;13.00;100.00;99897.03;5096485;27;19962;-76
2021/06/30 06:04:19;;;;;;;;;;;;;;;13.04;100.00;99887.38;5100789;27;19913;-76
2021/06/30 06:07:02;;;;;;;;;;;;;;;13.13;100.00;99886.88;5086879;28;20421;-76
2021/06/30 06:09:45;;;;;;;;;;;;;;;13.10;100.00;99884.91;5107190;27;20325;-77
2021/06/30 06:12:31;;;;;;;;;;;;;;;13.14;100.00;99882.84;5092222;27;20334;-77
2021/06/30 06:15:15;;;;;;;;;;;;;;;13.25;100.00;99877.88;5144394;27;19937;-76
2021/06/30 06:17:59;;;;;;;;;;;;;;;13.33;100.00;99865.34;5108029;27;20011;-77
2021/06/30 06:20:42;;;;;;;;;;;;;;;13.45;100.00;99861.97;5107161;27;20339;-77
2021/06/30 06:23:27;;;;;;;;;;;;;;;13.51;100.00;99857.47;5057279;28;19913;-77
2021/06/30 06:26:12;;;;;;;;;;;;;;;13.67;100.00;99858.41;5143351;27;19915;-77
2021/06/30 06:28:56;;;;;;;;;;;;;;;13.15;100.00;99817.06;5102423;27;19951;-76
2021/06/30 06:31:41;;;;;;;;;;;;;;;13.16;100.00;99813.06;5102296;27;20362;-76
2021/06/30 06:34:25;;;;;;;;;;;;;;;13.20;100.00;99817.41;5131468;27;19915;-76
2021/06/30 06:37:12;;;;;;;;;;;;;;;13.52;100.00;99819.72;5111197;27;20325;-76
2021/06/30 06:39:56;;;;;;;;;;;;;;;13.78;100.00;99824.53;5111000;27;20375;-76
2021/06/30 06:42:41;;;;;;;;;;;;;;;13.90;100.00;99816.25;5079070;28;19912;-76
2021/06/30 06:45:21;;;;;;;;;;;;;;;14.21;100.00;99809.28;5082511;28;20291;-76
2021/06/30 06:48:05;;;;;;;;;;;;;;;14.22;100.00;99796.03;5110977;27;20286;-77
2021/06/30 06:50:50;;;;;;;;;;;;;;;14.28;100.00;99785.91;5089331;28;20437;-78
2021/06/30 06:53:34;;;;;;;;;;;;;;;14.08;100.00;99765.38;5094728;27;19913;-77
2021/06/30 06:56:19;;;;;;;;;;;;;;;14.20;100.00;99761.94;5110900;27;19916;-77
2021/06/30 06:59:17;;;;;;;;;;;;;;;14.01;100.00;99754.28;5102419;27;19958;-77
2021/06/30 07:02:00;;;;;;;;;;;;;;;14.14;100.00;99753.22;5075155;28;19924;-77
2021/06/30 07:04:45;;;;;;;;;;;;;;;14.29;100.00;99748.13;5079256;28;19913;-77
2021/06/30 07:07:29;;;;;;;;;;;;;;;14.32;100.00;99741.63;5090560;27;19917;-77
2021/06/30 07:10:10;;;;;;;;;;;;;;;14.44;100.00;99732.56;5041487;27;1999161;-77
2021/06/30 07:12:54;;;;;;;;;;;;;;;14.79;100.00;99737.41;5082247;28;19939;-77
2021/06/30 07:15:33;;;;;;;;;;;;;;;14.82;100.00;99725.28;5095827;27;19912;-77
2021/06/30 07:18:16;;;;;;;;;;;;;;;14.87;100.00;99710.72;5090717;28;19912;-77
2021/06/30 07:21:01;;;;;;;;;;;;;;;15.01;100.00;99715.22;5111068;27;19965;-77
2021/06/30 07:23:42;;;;;;;;;;;;;;;14.99;100.00;99700.78;5076732;27;2009203;-77
2021/06/30 07:26:25;;;;;;;;;;;;;;;15.14;100.00;99694.38;5111001;27;19916;-77
2021/06/30 07:29:09;;;;;;;;;;;;;;;14.83;100.00;99669.81;5131860;27;20414;-76
2021/06/30 07:31:55;;;;;;;;;;;;;;;14.68;100.00;99666.53;5090528;28;19916;-76
2021/06/30 07:34:37;;;;;;;;;;;;;;;15.02;100.00;99683.03;5041378;27;2003124;-76
2021/06/30 07:37:21;;;;;;;;;;;;;;;15.11;100.00;99664.31;5090738;28;19939;-78
2021/06/30 07:40:07;;;;;;;;;;;;;;;15.12;100.00;99667.88;5111205;27;19916;-79
2021/06/30 07:42:52;;;;;;;;;;;;;;;15.15;100.00;99659.38;5081906;28;19917;-80
2021/06/30 07:45:36;;;;;;;;;;;;;;;15.42;100.00;99659.13;5091045;28;19912;-81
2021/06/30 07:48:22;;;;;;;;;;;;;;;15.38;100.00;99644.34;5091159;28;20405;-80
2021/06/30 07:51:26;;;;;;;;;;;;;;;15.25;100.00;99630.16;5081849;28;19974;-80
2021/06/30 07:54:07;;;;;;;;;;;;;;;15.46;100.00;99628.84;5090578;28;19917;-80
2021/06/30 07:56:52;;;;;;;;;;;;;;;15.45;100.00;99613.19;5090265;28;19966;-80
2021/06/30 07:59:33;;;;;;;;;;;;;;;15.43;100.00;99607.19;5106032;27;19916;-81
2021/06/30 08:02:18;;;;;;;;;;;;;;;15.59;100.00;99599.50;5083811;28;19913;-80
2021/06/30 08:05:03;;;;;;;;;;;;;;;15.53;100.00;99587.19;5144247;27;19962;-81
2021/06/30 08:07:49;;;;;;;;;;;;;;;15.39;100.00;99567.88;5103653;27;19938;-77
2021/06/30 08:10:28;;;;;;;;;;;;;;;15.00;100.00;99554.00;5083291;28;19912;-79
2021/06/30 08:13:08;;;;;;;;;;;;;;;15.15;100.00;99558.03;5085494;28;19912;-78
2021/06/30 08:15:49;;;;;;;;;;;;;;;15.15;100.00;99551.59;5083294;28;19917;-78
2021/06/30 08:18:29;;;;;;;;;;;;;;;15.58;100.00;99546.44;5083191;28;19912;-78
2021/06/30 08:21:09;;;;;;;;;;;;;;;15.79;100.00;99540.97;5082267;28;19916;-80
2021/06/30 08:23:54;;;;;;;;;;;;;;;15.58;100.00;99529.53;5085604;28;19912;-84
2021/06/30 08:26:35;;;;;;;;;;;;;;;15.58;100.00;99515.44;5088806;28;19943;-84
2021/06/30 08:29:28;;;;;;;;;;;;;;;15.70;100.00;99509.84;5085587;27;19913;-83
2021/06/30 08:32:13;;;;;;;;;;;;;;;16.03;100.00;99513.28;5087972;28;20969;-78
2021/06/30 08:34:54;;;;;;;;;;;;;;;16.20;100.00;99509.91;5080007;28;19963;-79
2021/06/30 08:37:39;;;;;;;;;;;;;;;16.09;100.00;99498.19;5129391;27;20365;-87
2021/06/30 08:40:21;;;;;;;;;;;;;;;16.04;100.00;99492.28;5088562;28;20363;-86
2021/06/30 08:43:07;;;;;;;;;;;;;;;16.44;100.00;99484.19;5088006;27;19962;-89
2021/06/30 08:45:53;;;;;;;;;;;;;;;16.20;100.00;99470.44;5081285;27;19912;-88
2021/06/30 08:48:39;;;;;;;;;;;;;;;15.92;100.00;99448.78;5099574;28;19916;-90
2021/06/30 08:51:20;;;;;;;;;;;;;;;16.09;100.00;99455.09;5088823;28;19939;-86
2021/06/30 08:54:07;;;;;;;;;;;;;;;17.15;100.00;99453.09;5084705;28;20330;-85
2021/06/30 08:56:52;;;;;;;;;;;;;;;17.82;100.00;99453.41;5108369;27;19912;-86
2021/06/30 08:59:37;;;;;;;;;;;;;;;18.92;100.00;99439.94;5088595;28;20514;-90
2021/06/30 09:02:18;;;;;;;;;;;;;;;18.61;100.00;99407.34;5082831;28;20383;-88
2021/06/30 09:08:06;;;;;;;;;;;;;;;17.96;100.00;99385.00;5085198;28;19913;-88
2021/06/30 09:10:49;;;;;;;;;;;;;;;16.99;100.00;99374.25;5098149;27;19913;-86
2021/06/30 09:13:34;;;;;;;;;;;;;;;16.42;100.00;99368.22;5087516;28;19912;-87
2021/06/30 09:16:18;;;;;;;;;;;;;;;16.00;100.00;99379.69;5087935;28;19913;-87
2021/06/30 09:19:03;;;;;;;;;;;;;;;15.79;100.00;99380.38;5089270;27;19913;-87
2021/06/30 09:21:57;;;;;;;;;;;;;;;16.34;100.00;99380.97;5088439;28;19916;-86
2021/06/30 09:24:38;;;;;;;;;;;;;;;16.48;100.00;99377.72;5081002;28;19916;-87
2021/06/30 09:27:37;;;;;;;;;;;;;;;16.44;100.00;99377.03;5106122;27;19958;-90
2021/06/30 09:30:18;;;;;;;;;;;;;;;16.47;100.00;99371.28;5109384;27;20332;-84
2021/06/30 09:33:01;;;;;;;;;;;;;;;16.42;100.00;99376.69;5088909;28;20322;-80
2021/06/30 09:35:45;;;;;;;;;;;;;;;16.30;100.00;99380.31;5082149;28;19943;-80
2021/06/30 09:38:28;;;;;;;;;;;;;;;16.49;100.00;99384.91;5085939;28;20436;-79
2021/06/30 09:41:07;;;;;;;;;;;;;;;16.67;100.00;99383.06;5080381;28;19917;-79
2021/06/30 09:43:47;;;;;;;;;;;;;;;16.86;100.00;99381.97;5086599;28;19970;-84
2021/06/30 09:46:32;;;;;;;;;;;;;;;16.52;100.00;99375.53;5087299;28;19959;-79
2021/06/30 09:49:12;;;;;;;;;;;;;;;16.64;100.00;99364.22;5067874;28;19917;-78
2021/06/30 09:52:12;;;;;;;;;;;;;;;17.35;100.00;99374.47;5082116;28;19916;-78
2021/06/30 09:54:52;;;;;;;;;;;;;;;17.55;100.00;99366.44;5086120;28;19917;-78
2021/06/30 09:57:38;;;;;;;;;;;;;;;18.05;100.00;99365.25;5066197;28;19955;-78
2021/06/30 10:00:16;;;;;;;;;;;;;;;18.18;100.00;99367.94;4997315;27;2040132;-79
2021/06/30 10:02:56;;;;;;;;;;;;;;;18.05;100.00;99353.94;5083455;28;20577;-79
2021/06/30 10:05:35;;;;;;;;;;;;;;;17.53;100.00;99357.66;5104115;27;19912;-79
2021/06/30 10:08:17;;;;;;;;;;;;;;;16.73;100.00;99343.75;5073241;28;19916;-78
2021/06/30 10:11:08;;;;;;;;;;;;;;;17.12;100.00;99357.22;5080222;28;19977;-78
2021/06/30 10:13:49;;;;;;;;;;;;;;;17.65;100.00;99356.75;5129022;27;19916;-78
2021/06/30 10:16:28;;;;;;;;;;;;;;;17.96;100.00;99348.25;5101987;27;20310;-79
2021/06/30 10:19:08;;;;;;;;;;;;;;;17.33;100.00;99336.63;5099824;27;19912;-78
2021/06/30 10:21:47;;;;;;;;;;;;;;;17.42;100.00;99339.50;5072049;27;20002;-83
2021/06/30 10:24:33;;;;;;;;;;;;;;;17.70;100.00;99341.25;5086332;28;19943;-83
2021/06/30 10:27:14;;;;;;;;;;;;;;;17.69;100.00;99342.50;5103393;27;20371;-83
2021/06/30 10:30:00;;;;;;;;;;;;;;;18.05;100.00;99345.44;5087552;28;19978;-88
2021/06/30 10:32:53;;;;;;;;;;;;;;;18.28;100.00;99338.44;5121660;27;19912;-77
2021/06/30 10:35:43;;;;;;;;;;;;;;;18.46;100.00;99330.78;5117170;27;19912;-81
2021/06/30 10:38:23;;;;;;;;;;;;;;;18.26;100.00;99313.44;5078514;28;19920;-81
2021/06/30 10:41:28;;;;;;;;;;;;;;;18.23;100.00;99311.56;5087246;28;19913;-80
2021/06/30 10:44:09;;;;;;;;;;;;;;;17.73;100.00;99297.91;5128517;27;19916;-84
2021/06/30 10:46:54;;;;;;;;;;;;;;;17.98;100.00;99300.50;5087543;28;19912;-82
2021/06/30 10:49:38;;;;;;;;;;;;;;;17.86;100.00;99295.75;5087611;28;19977;-82
2021/06/30 10:52:24;;;;;;;;;;;;;;;18.01;100.00;99296.72;5087396;27;19912;-80
2021/06/30 10:55:03;;;;;;;;;;;;;;;18.51;100.00;99296.19;5111225;27;19920;-78
2021/06/30 10:57:41;;;;;;;;;;;;;;;18.42;100.00;99293.34;5128349;27;19915;-78
2021/06/30 11:00:20;;;;;;;;;;;;;;;19.12;100.00;99301.47;5087651;28;20618;-84
2021/06/30 11:03:26;;;;;;;;;;;;;;;19.35;100.00;99292.31;5054047;28;19921;-84
2021/06/30 11:06:06;;;;;;;;;;;;;;;19.75;100.00;99283.47;5129834;27;19941;-85
2021/06/30 11:08:57;;;;;;;;;;;;;;;19.98;100.00;99270.59;5108001;27;19912;-84
2021/06/30 11:11:43;;;;;;;;;;;;;;;19.99;100.00;99258.78;5084510;28;19916;-85
2021/06/30 11:14:36;;;;;;;;;;;;;;;19.68;100.00;99261.16;5080051;28;20352;-83
2021/06/30 11:17:33;;;;;;;;;;;;;;;20.03;100.00;99255.75;5071770;28;19982;-81
2021/06/30 11:20:33;;;;;;;;;;;;;;;19.72;100.00;99243.97;5085383;27;19942;-81
2021/06/30 11:23:20;;;;;;;;;;;;;;;19.22;100.00;99232.19;5087646;27;19966;-84
2021/06/30 11:26:22;;;;;;;;;;;;;;;19.24;100.00;99241.00;5086787;27;19916;-81
2021/06/30 11:28:59;;;;;;;;;;;;;;;18.88;100.00;99241.13;5075845;27;2009153;-78
2021/06/30 11:31:37;;;;;;;;;;;;;;;19.03;100.00;99255.41;5087130;27;19917;-78
2021/06/30 11:34:21;;;;;;;;;;;;;;;18.82;100.00;99242.22;5077650;28;19939;-84
2021/06/30 11:37:15;;;;;;;;;;;;;;;18.63;100.00;99241.47;5098576;27;19938;-79
2021/06/30 11:39:57;;;;;;;;;;;;;;;18.63;100.00;99249.97;5074706;28;19940;-79
2021/06/30 11:42:40;;;;;;;;;;;;;;;19.02;100.00;99243.28;5088298;28;19966;-86
2021/06/30 11:45:22;;;;;;;;;;;;;;;18.53;100.00;99248.41;5088157;28;19916;-87
2021/06/30 11:48:02;;;;;;;;;;;;;;;18.66;100.00;99234.88;5059564;27;2006890;-84
2021/06/30 11:50:53;;;;;;;;;;;;;;;19.45;100.00;99253.38;5083896;27;19912;-80
2021/06/30 11:53:34;;;;;;;;;;;;;;;19.40;100.00;99242.72;5086707;28;19981;-77
2021/06/30 11:56:27;;;;;;;;;;;;;;;19.57;100.00;99233.34;5106233;27;19961;-78
2021/06/30 11:59:08;;;;;;;;;;;;;;;19.49;100.00;99246.28;5106873;27;19957;-78
2021/06/30 12:01:52;;;;;;;;;;;;;;;19.59;100.00;99235.69;5082276;27;19921;-78
2021/06/30 12:04:32;;;;;;;;;;;;;;;19.81;100.00;99235.41;5086066;28;19966;-78
2021/06/30 12:07:10;;;;;;;;;;;;;;;19.20;100.00;99229.06;5103552;27;20611;-78
2021/06/30 12:09:49;;;;;;;;;;;;;;;19.52;100.00;99233.97;5081189;28;19943;-79
2021/06/30 12:12:30;;;;;;;;;;;;;;;19.33;100.00;99228.88;5082496;28;19916;-77
2021/06/30 12:15:09;;;;;;;;;;;;;;;19.85;100.00;99239.63;5104436;27;19913;-77
2021/06/30 12:17:50;;;;;;;;;;;;;;;19.47;100.00;99243.16;5086350;28;20272;-77
2021/06/30 12:20:30;;;;;;;;;;;;;;;19.40;100.00;99243.47;5076693;28;19916;-76
2021/06/30 12:23:10;;;;;;;;;;;;;;;18.76;100.00;99242.09;5087411;28;19938;-76
2021/06/30 12:25:49;;;;;;;;;;;;;;;18.71;100.00;99245.56;5105440;27;19916;-77
2021/06/30 12:28:27;;;;;;;;;;;;;;;18.93;100.00;99240.47;5111070;27;19912;-77
2021/06/30 12:31:06;;;;;;;;;;;;;;;18.82;100.00;99237.38;5079276;27;20425;-77
2021/06/30 12:33:46;;;;;;;;;;;;;;;18.79;100.00;99240.34;5101816;27;19920;-76
2021/06/30 12:36:25;;;;;;;;;;;;;;;18.85;100.00;99238.44;5109835;27;19912;-77
2021/06/30 12:39:18;;;;;;;;;;;;;;;18.68;100.00;99238.00;5102655;27;19959;-77
2021/06/30 12:42:00;;;;;;;;;;;;;;;18.97;100.00;99243.13;5074849;28;19921;-77
2021/06/30 12:44:56;;;;;;;;;;;;;;;19.59;100.00;99249.84;5077009;28;19912;-77
2021/06/30 12:47:35;;;;;;;;;;;;;;;19.70;100.00;99235.94;5090365;28;19920;-77
2021/06/30 12:50:15;;;;;;;;;;;;;;;19.35;100.00;99247.00;5127899;27;19919;-77
2021/06/30 12:53:02;;;;;;;;;;;;;;;19.56;100.00;99245.94;5097204;27;19938;-77
2021/06/30 12:55:48;;;;;;;;;;;;;;;19.77;100.00;99241.25;5143743;27;19916;-77
2021/06/30 12:58:46;;;;;;;;;;;;;;;19.77;100.00;99224.25;5088970;28;20299;-77
2021/06/30 13:01:26;;;;;;;;;;;;;;;19.68;100.00;99219.41;5041778;27;1992743;-77
2021/06/30 13:04:27;;;;;;;;;;;;;;;19.59;100.00;99216.63;5110403;27;19912;-77
2021/06/30 13:07:05;;;;;;;;;;;;;;;19.16;100.00;99210.69;5109630;27;19957;-76
2021/06/30 13:09:43;;;;;;;;;;;;;;;19.07;100.00;99214.31;5110379;27;19912;-77
2021/06/30 13:12:22;;;;;;;;;;;;;;;19.22;100.00;99220.88;5125715;27;19916;-77
2021/06/30 13:15:39;;;;;;;;;;;;;;;19.51;100.00;99215.41;5109379;27;19912;-77
2021/06/30 13:18:19;;;;;;;;;;;;;;;19.52;100.00;99205.63;5137470;27;19915;-76
2021/06/30 13:21:05;;;;;;;;;;;;;;;19.58;100.00;99215.06;5044283;28;19963;-78
2021/06/30 13:23:53;;;;;;;;;;;;;;;19.09;100.00;99206.13;5084395;28;20050;-77
2021/06/30 13:27:16;;;;;;;;;;;;;;;19.06;100.00;99206.28;5110872;27;20317;-80
2021/06/30 13:36:03;;;;;;;;;;;;;;;19.40;100.00;99215.16;5103999;27;19974;-80
2021/06/30 13:38:44;;;;;;;;;;;;;;;19.58;100.00;99212.22;5079016;28;20364;-80
2021/06/30 13:41:29;;;;;;;;;;;;;;;18.80;100.00;99205.91;5083362;28;19917;-80
2021/06/30 13:44:07;;;;;;;;;;;;;;;18.86;100.00;99206.84;5104144;27;19916;-80
2021/06/30 13:46:47;;;;;;;;;;;;;;;18.82;100.00;99206.22;5082852;28;19947;-80
2021/06/30 13:49:31;;;;;;;;;;;;;;;18.96;100.00;99197.03;5069671;27;2003529;-80
2021/06/30 13:52:16;;;;;;;;;;;;;;;18.85;100.00;99185.47;5089475;28;19913;-80
2021/06/30 13:55:01;;;;;;;;;;;;;;;18.81;100.00;99195.38;5089759;28;19917;-80
2021/06/30 13:57:44;;;;;;;;;;;;;;;18.64;100.00;99192.13;5089727;28;19917;-80
2021/06/30 14:00:30;;;;;;;;;;;;;;;18.58;100.00;99196.84;5130565;27;19923;-80
2021/06/30 14:03:11;;;;;;;;;;;;;;;18.66;100.00;99200.91;5090056;28;19923;-80
2021/06/30 14:05:54;;;;;;;;;;;;;;;18.83;100.00;99199.28;5071677;27;2023478;-80
2021/06/30 14:08:39;;;;;;;;;;;;;;;18.84;100.00;99203.69;5089547;28;19919;-80
2021/06/30 14:11:25;;;;;;;;;;;;;;;18.77;100.00;99203.22;5089596;28;20330;-80
2021/06/30 14:14:05;;;;;;;;;;;;;;;18.86;100.00;99206.84;5089648;28;19969;-80